sensor_id;sensor_type;location;lat;lon;timestamp;P1;durP1;ratioP1;P2;durP2;ratioP2
9860;SDS011;4969;52.304;4.968;2023-01-28T00:01:28;12.43;;;11.27;;
9860;SDS011;4969;52.304;4.968;2023-01-28T00:03:54;7.37;;;6.77;;
9860;SDS011;4969;52.304;4.968;2023-01-28T00:06:21;7.93;;;7.43;;
9860;SDS011;4969;52.304;4.968;2023-01-28T00:08:49;6.90;;;6.40;;
9860;SDS011;4969;52.304;4.968;2023-01-28T00:11:15;8.93;;;8.23;;
9860;SDS011;4969;52.304;4.968;2023-01-28T00:13:42;12.43;;;11.30;;
9860;SDS011;4969;52.304;4.968;2023-01-28T00:16:09;11.57;;;10.53;;
9860;SDS011;4969;52.304;4.968;2023-01-28T00:18:35;10.10;;;9.20;;
9860;SDS011;4969;52.304;4.968;2023-01-28T00:21:03;16.50;;;14.87;;
9860;SDS011;4969;52.304;4.968;2023-01-28T00:23:33;17.83;;;16.03;;
9860;SDS011;4969;52.304;4.968;2023-01-28T00:26:02;8.90;;;8.20;;
9860;SDS011;4969;52.304;4.968;2023-01-28T00:28:30;5.30;;;4.90;;
9860;SDS011;4969;52.304;4.968;2023-01-28T00:30:57;6.20;;;5.70;;
9860;SDS011;4969;52.304;4.968;2023-01-28T00:33:24;6.10;;;5.60;;
9860;SDS011;4969;52.304;4.968;2023-01-28T00:35:56;4.60;;;4.30;;
9860;SDS011;4969;52.304;4.968;2023-01-28T00:38:24;6.33;;;5.73;;
9860;SDS011;4969;52.304;4.968;2023-01-28T00:40:51;5.13;;;4.57;;
9860;SDS011;4969;52.304;4.968;2023-01-28T00:43:19;4.70;;;4.40;;
9860;SDS011;4969;52.304;4.968;2023-01-28T00:45:46;4.13;;;3.90;;
9860;SDS011;4969;52.304;4.968;2023-01-28T00:48:12;4.20;;;4.00;;
9860;SDS011;4969;52.304;4.968;2023-01-28T00:50:39;5.37;;;3.80;;
9860;SDS011;4969;52.304;4.968;2023-01-28T00:53:06;4.80;;;4.40;;
9860;SDS011;4969;52.304;4.968;2023-01-28T00:55:32;5.80;;;5.40;;
9860;SDS011;4969;52.304;4.968;2023-01-28T00:57:59;3.57;;;3.37;;
9860;SDS011;4969;52.304;4.968;2023-01-28T01:00:27;3.60;;;3.40;;
9860;SDS011;4969;52.304;4.968;2023-01-28T01:02:53;3.50;;;3.30;;
9860;SDS011;4969;52.304;4.968;2023-01-28T01:05:20;3.67;;;3.37;;
9860;SDS011;4969;52.304;4.968;2023-01-28T01:07:46;3.80;;;3.50;;
9860;SDS011;4969;52.304;4.968;2023-01-28T01:10:14;4.43;;;3.10;;
9860;SDS011;4969;52.304;4.968;2023-01-28T01:12:42;2.73;;;2.63;;
9860;SDS011;4969;52.304;4.968;2023-01-28T01:15:11;3.10;;;2.80;;
9860;SDS011;4969;52.304;4.968;2023-01-28T01:17:40;3.30;;;3.10;;
9860;SDS011;4969;52.304;4.968;2023-01-28T01:20:08;3.23;;;3.03;;
9860;SDS011;4969;52.304;4.968;2023-01-28T01:22:38;2.87;;;2.67;;
9860;SDS011;4969;52.304;4.968;2023-01-28T01:25:05;4.63;;;4.33;;
9860;SDS011;4969;52.304;4.968;2023-01-28T01:27:32;4.00;;;3.70;;
9860;SDS011;4969;52.304;4.968;2023-01-28T01:29:59;2.67;;;2.50;;
9860;SDS011;4969;52.304;4.968;2023-01-28T01:32:28;5.47;;;4.97;;
9860;SDS011;4969;52.304;4.968;2023-01-28T01:34:56;2.53;;;2.33;;
9860;SDS011;4969;52.304;4.968;2023-01-28T01:37:23;3.10;;;2.70;;
9860;SDS011;4969;52.304;4.968;2023-01-28T01:39:50;3.10;;;2.80;;
9860;SDS011;4969;52.304;4.968;2023-01-28T01:42:16;2.73;;;2.63;;
9860;SDS011;4969;52.304;4.968;2023-01-28T01:44:56;2.70;;;2.50;;
9860;SDS011;4969;52.304;4.968;2023-01-28T01:47:27;2.67;;;2.47;;
9860;SDS011;4969;52.304;4.968;2023-01-28T01:50:00;3.30;;;3.00;;
9860;SDS011;4969;52.304;4.968;2023-01-28T01:52:30;2.60;;;2.50;;
9860;SDS011;4969;52.304;4.968;2023-01-28T01:55:00;3.00;;;2.80;;
9860;SDS011;4969;52.304;4.968;2023-01-28T01:57:32;2.97;;;2.77;;
9860;SDS011;4969;52.304;4.968;2023-01-28T02:00:02;2.53;;;2.43;;
9860;SDS011;4969;52.304;4.968;2023-01-28T02:02:32;3.43;;;3.20;;
9860;SDS011;4969;52.304;4.968;2023-01-28T02:05:03;3.27;;;3.03;;
9860;SDS011;4969;52.304;4.968;2023-01-28T02:07:30;2.90;;;2.70;;
9860;SDS011;4969;52.304;4.968;2023-01-28T02:09:57;3.73;;;3.43;;
9860;SDS011;4969;52.304;4.968;2023-01-28T02:12:25;4.20;;;3.90;;
9860;SDS011;4969;52.304;4.968;2023-01-28T02:14:56;2.93;;;2.73;;
9860;SDS011;4969;52.304;4.968;2023-01-28T02:17:27;2.80;;;2.60;;
9860;SDS011;4969;52.304;4.968;2023-01-28T02:19:55;2.70;;;2.53;;
9860;SDS011;4969;52.304;4.968;2023-01-28T02:25:31;3.17;;;2.97;;
9860;SDS011;4969;52.304;4.968;2023-01-28T02:28:21;3.00;;;2.80;;
9860;SDS011;4969;52.304;4.968;2023-01-28T02:30:54;4.70;;;4.27;;
9860;SDS011;4969;52.304;4.968;2023-01-28T02:33:26;5.83;;;2.93;;
9860;SDS011;4969;52.304;4.968;2023-01-28T02:35:56;3.50;;;3.20;;
9860;SDS011;4969;52.304;4.968;2023-01-28T02:38:29;4.93;;;4.53;;
9860;SDS011;4969;52.304;4.968;2023-01-28T02:41:02;3.37;;;3.07;;
9860;SDS011;4969;52.304;4.968;2023-01-28T02:43:36;2.83;;;2.63;;
9860;SDS011;4969;52.304;4.968;2023-01-28T02:46:10;2.80;;;2.60;;
9860;SDS011;4969;52.304;4.968;2023-01-28T02:49:00;6.03;;;5.53;;
9860;SDS011;4969;52.304;4.968;2023-01-28T02:51:30;2.50;;;2.30;;
9860;SDS011;4969;52.304;4.968;2023-01-28T02:54:05;2.83;;;2.63;;
9860;SDS011;4969;52.304;4.968;2023-01-28T02:56:38;2.77;;;2.57;;
9860;SDS011;4969;52.304;4.968;2023-01-28T02:59:14;5.20;;;4.80;;
9860;SDS011;4969;52.304;4.968;2023-01-28T03:01:59;4.40;;;4.03;;
9860;SDS011;4969;52.304;4.968;2023-01-28T03:04:34;2.53;;;2.33;;
9860;SDS011;4969;52.304;4.968;2023-01-28T03:07:04;3.07;;;2.77;;
9860;SDS011;4969;52.304;4.968;2023-01-28T03:09:34;2.70;;;2.50;;
9860;SDS011;4969;52.304;4.968;2023-01-28T03:12:02;4.77;;;4.47;;
9860;SDS011;4969;52.304;4.968;2023-01-28T03:14:51;3.93;;;3.67;;
9860;SDS011;4969;52.304;4.968;2023-01-28T03:17:40;3.80;;;3.50;;
9860;SDS011;4969;52.304;4.968;2023-01-28T03:20:31;5.53;;;5.03;;
9860;SDS011;4969;52.304;4.968;2023-01-28T03:23:21;3.27;;;2.97;;
9860;SDS011;4969;52.304;4.968;2023-01-28T03:26:09;2.90;;;2.70;;
9860;SDS011;4969;52.304;4.968;2023-01-28T03:28:56;4.27;;;3.93;;
9860;SDS011;4969;52.304;4.968;2023-01-28T03:31:49;4.97;;;4.57;;
9860;SDS011;4969;52.304;4.968;2023-01-28T03:34:34;2.87;;;2.67;;
9860;SDS011;4969;52.304;4.968;2023-01-28T03:37:18;4.00;;;3.70;;
9860;SDS011;4969;52.304;4.968;2023-01-28T03:39:45;5.07;;;4.67;;
9860;SDS011;4969;52.304;4.968;2023-01-28T03:42:12;3.50;;;3.00;;
9860;SDS011;4969;52.304;4.968;2023-01-28T03:44:40;4.90;;;4.53;;
9860;SDS011;4969;52.304;4.968;2023-01-28T03:47:18;4.57;;;4.17;;
9860;SDS011;4969;52.304;4.968;2023-01-28T03:49:47;4.53;;;4.23;;
9860;SDS011;4969;52.304;4.968;2023-01-28T03:52:15;3.67;;;3.43;;
9860;SDS011;4969;52.304;4.968;2023-01-28T03:54:43;2.97;;;2.73;;
9860;SDS011;4969;52.304;4.968;2023-01-28T03:57:11;3.10;;;2.90;;
9860;SDS011;4969;52.304;4.968;2023-01-28T03:59:38;4.23;;;3.90;;
9860;SDS011;4969;52.304;4.968;2023-01-28T04:02:05;3.33;;;3.13;;
9860;SDS011;4969;52.304;4.968;2023-01-28T04:04:34;3.10;;;2.90;;
9860;SDS011;4969;52.304;4.968;2023-01-28T04:07:00;2.80;;;2.70;;
9860;SDS011;4969;52.304;4.968;2023-01-28T04:09:27;3.43;;;3.23;;
9860;SDS011;4969;52.304;4.968;2023-01-28T04:11:53;3.20;;;3.00;;
9860;SDS011;4969;52.304;4.968;2023-01-28T04:14:20;3.57;;;3.27;;
9860;SDS011;4969;52.304;4.968;2023-01-28T04:16:47;3.83;;;3.53;;
9860;SDS011;4969;52.304;4.968;2023-01-28T04:19:13;3.57;;;3.37;;
9860;SDS011;4969;52.304;4.968;2023-01-28T04:21:41;3.83;;;3.53;;
9860;SDS011;4969;52.304;4.968;2023-01-28T04:24:08;4.63;;;4.23;;
9860;SDS011;4969;52.304;4.968;2023-01-28T04:26:35;4.60;;;4.30;;
9860;SDS011;4969;52.304;4.968;2023-01-28T04:29:01;3.67;;;3.47;;
9860;SDS011;4969;52.304;4.968;2023-01-28T04:31:28;4.00;;;3.70;;
9860;SDS011;4969;52.304;4.968;2023-01-28T04:33:55;4.17;;;3.87;;
9860;SDS011;4969;52.304;4.968;2023-01-28T04:36:21;4.17;;;3.87;;
9860;SDS011;4969;52.304;4.968;2023-01-28T04:38:49;4.33;;;3.97;;
9860;SDS011;4969;52.304;4.968;2023-01-28T04:41:16;4.60;;;4.30;;
9860;SDS011;4969;52.304;4.968;2023-01-28T04:43:43;3.40;;;3.20;;
9860;SDS011;4969;52.304;4.968;2023-01-28T04:46:09;3.80;;;3.60;;
9860;SDS011;4969;52.304;4.968;2023-01-28T04:48:36;4.10;;;3.90;;
9860;SDS011;4969;52.304;4.968;2023-01-28T04:51:03;3.83;;;3.60;;
9860;SDS011;4969;52.304;4.968;2023-01-28T04:53:30;3.60;;;3.30;;
9860;SDS011;4969;52.304;4.968;2023-01-28T04:55:58;4.07;;;3.83;;
9860;SDS011;4969;52.304;4.968;2023-01-28T04:58:25;3.90;;;3.63;;
9860;SDS011;4969;52.304;4.968;2023-01-28T05:00:53;3.50;;;3.30;;
9860;SDS011;4969;52.304;4.968;2023-01-28T05:03:21;4.00;;;3.70;;
9860;SDS011;4969;52.304;4.968;2023-01-28T05:05:47;3.50;;;3.30;;
9860;SDS011;4969;52.304;4.968;2023-01-28T05:08:14;3.50;;;3.20;;
9860;SDS011;4969;52.304;4.968;2023-01-28T05:10:41;3.23;;;3.07;;
9860;SDS011;4969;52.304;4.968;2023-01-28T05:13:09;3.70;;;3.40;;
9860;SDS011;4969;52.304;4.968;2023-01-28T05:15:36;3.53;;;3.10;;
9860;SDS011;4969;52.304;4.968;2023-01-28T05:18:02;4.07;;;3.77;;
9860;SDS011;4969;52.304;4.968;2023-01-28T05:20:29;3.90;;;3.60;;
9860;SDS011;4969;52.304;4.968;2023-01-28T05:22:56;3.77;;;3.57;;
9860;SDS011;4969;52.304;4.968;2023-01-28T05:25:22;3.83;;;3.63;;
9860;SDS011;4969;52.304;4.968;2023-01-28T05:27:49;3.20;;;3.00;;
9860;SDS011;4969;52.304;4.968;2023-01-28T05:30:17;3.53;;;3.27;;
9860;SDS011;4969;52.304;4.968;2023-01-28T05:32:44;3.43;;;3.23;;
9860;SDS011;4969;52.304;4.968;2023-01-28T05:35:11;3.40;;;3.20;;
9860;SDS011;4969;52.304;4.968;2023-01-28T05:37:38;3.53;;;3.33;;
9860;SDS011;4969;52.304;4.968;2023-01-28T05:40:05;3.73;;;3.33;;
9860;SDS011;4969;52.304;4.968;2023-01-28T05:42:32;3.93;;;3.60;;
9860;SDS011;4969;52.304;4.968;2023-01-28T05:44:59;3.90;;;3.70;;
9860;SDS011;4969;52.304;4.968;2023-01-28T05:47:27;3.83;;;3.60;;
9860;SDS011;4969;52.304;4.968;2023-01-28T05:49:53;3.93;;;3.73;;
9860;SDS011;4969;52.304;4.968;2023-01-28T05:52:20;3.60;;;3.40;;
9860;SDS011;4969;52.304;4.968;2023-01-28T05:54:47;4.10;;;3.83;;
9860;SDS011;4969;52.304;4.968;2023-01-28T05:57:13;4.17;;;3.87;;
9860;SDS011;4969;52.304;4.968;2023-01-28T05:59:40;3.90;;;3.70;;
9860;SDS011;4969;52.304;4.968;2023-01-28T06:02:06;4.00;;;3.80;;
9860;SDS011;4969;52.304;4.968;2023-01-28T06:04:34;3.67;;;3.43;;
9860;SDS011;4969;52.304;4.968;2023-01-28T06:07:01;3.60;;;3.40;;
9860;SDS011;4969;52.304;4.968;2023-01-28T06:09:27;3.50;;;3.27;;
9860;SDS011;4969;52.304;4.968;2023-01-28T06:11:54;3.43;;;3.13;;
9860;SDS011;4969;52.304;4.968;2023-01-28T06:14:21;3.67;;;3.37;;
9860;SDS011;4969;52.304;4.968;2023-01-28T06:16:47;3.07;;;2.87;;
9860;SDS011;4969;52.304;4.968;2023-01-28T06:19:16;3.17;;;3.07;;
9860;SDS011;4969;52.304;4.968;2023-01-28T06:21:44;3.93;;;3.53;;
9860;SDS011;4969;52.304;4.968;2023-01-28T06:24:10;3.50;;;3.30;;
9860;SDS011;4969;52.304;4.968;2023-01-28T06:26:38;3.40;;;3.17;;
9860;SDS011;4969;52.304;4.968;2023-01-28T06:29:04;3.50;;;3.30;;
9860;SDS011;4969;52.304;4.968;2023-01-28T06:31:31;3.13;;;2.83;;
9860;SDS011;4969;52.304;4.968;2023-01-28T06:33:58;3.37;;;3.17;;
9860;SDS011;4969;52.304;4.968;2023-01-28T06:36:24;3.57;;;3.37;;
9860;SDS011;4969;52.304;4.968;2023-01-28T06:38:52;3.50;;;3.30;;
9860;SDS011;4969;52.304;4.968;2023-01-28T06:41:19;3.20;;;3.00;;
9860;SDS011;4969;52.304;4.968;2023-01-28T06:43:45;4.13;;;3.80;;
9860;SDS011;4969;52.304;4.968;2023-01-28T06:46:12;3.40;;;3.20;;
9860;SDS011;4969;52.304;4.968;2023-01-28T06:48:38;4.43;;;4.00;;
9860;SDS011;4969;52.304;4.968;2023-01-28T06:51:05;4.50;;;4.07;;
9860;SDS011;4969;52.304;4.968;2023-01-28T06:53:32;3.70;;;3.50;;
9860;SDS011;4969;52.304;4.968;2023-01-28T06:56:00;4.00;;;3.70;;
9860;SDS011;4969;52.304;4.968;2023-01-28T06:58:26;3.67;;;3.47;;
9860;SDS011;4969;52.304;4.968;2023-01-28T07:00:53;3.73;;;3.53;;
9860;SDS011;4969;52.304;4.968;2023-01-28T07:03:20;3.27;;;3.07;;
9860;SDS011;4969;52.304;4.968;2023-01-28T07:05:46;3.87;;;3.50;;
9860;SDS011;4969;52.304;4.968;2023-01-28T07:08:13;3.47;;;3.20;;
9860;SDS011;4969;52.304;4.968;2023-01-28T07:10:39;3.67;;;3.47;;
9860;SDS011;4969;52.304;4.968;2023-01-28T07:13:07;3.87;;;3.47;;
9860;SDS011;4969;52.304;4.968;2023-01-28T07:15:34;3.20;;;3.07;;
9860;SDS011;4969;52.304;4.968;2023-01-28T07:18:00;3.10;;;2.90;;
9860;SDS011;4969;52.304;4.968;2023-01-28T07:20:27;3.20;;;3.00;;
9860;SDS011;4969;52.304;4.968;2023-01-28T07:22:54;3.30;;;2.67;;
9860;SDS011;4969;52.304;4.968;2023-01-28T07:25:20;2.97;;;2.77;;
9860;SDS011;4969;52.304;4.968;2023-01-28T07:27:47;3.40;;;3.10;;
9860;SDS011;4969;52.304;4.968;2023-01-28T07:30:17;3.03;;;2.73;;
9860;SDS011;4969;52.304;4.968;2023-01-28T07:32:45;2.90;;;2.70;;
9860;SDS011;4969;52.304;4.968;2023-01-28T07:35:12;2.60;;;2.50;;
9860;SDS011;4969;52.304;4.968;2023-01-28T07:37:40;2.67;;;2.47;;
9860;SDS011;4969;52.304;4.968;2023-01-28T07:40:07;2.60;;;2.40;;
9860;SDS011;4969;52.304;4.968;2023-01-28T07:42:34;2.30;;;2.20;;
9860;SDS011;4969;52.304;4.968;2023-01-28T07:45:01;3.73;;;2.33;;
9860;SDS011;4969;52.304;4.968;2023-01-28T07:47:30;1.93;;;1.83;;
9860;SDS011;4969;52.304;4.968;2023-01-28T07:49:57;2.43;;;2.23;;
9860;SDS011;4969;52.304;4.968;2023-01-28T07:52:23;2.33;;;2.03;;
9860;SDS011;4969;52.304;4.968;2023-01-28T07:54:50;2.30;;;2.20;;
9860;SDS011;4969;52.304;4.968;2023-01-28T07:57:16;2.50;;;2.33;;
9860;SDS011;4969;52.304;4.968;2023-01-28T07:59:47;3.03;;;2.83;;
9860;SDS011;4969;52.304;4.968;2023-01-28T08:02:14;3.50;;;3.20;;
9860;SDS011;4969;52.304;4.968;2023-01-28T08:04:42;3.80;;;3.50;;
9860;SDS011;4969;52.304;4.968;2023-01-28T08:07:08;4.37;;;4.07;;
9860;SDS011;4969;52.304;4.968;2023-01-28T08:09:35;4.67;;;4.37;;
9860;SDS011;4969;52.304;4.968;2023-01-28T08:12:02;5.17;;;4.80;;
9860;SDS011;4969;52.304;4.968;2023-01-28T08:14:29;5.23;;;4.73;;
9860;SDS011;4969;52.304;4.968;2023-01-28T08:16:56;4.80;;;4.40;;
9860;SDS011;4969;52.304;4.968;2023-01-28T08:19:22;5.03;;;4.63;;
9860;SDS011;4969;52.304;4.968;2023-01-28T08:21:50;5.50;;;5.07;;
9860;SDS011;4969;52.304;4.968;2023-01-28T08:24:17;5.47;;;5.07;;
9860;SDS011;4969;52.304;4.968;2023-01-28T08:26:44;4.90;;;4.60;;
9860;SDS011;4969;52.304;4.968;2023-01-28T08:29:13;5.33;;;4.97;;
9860;SDS011;4969;52.304;4.968;2023-01-28T08:31:39;5.63;;;5.10;;
9860;SDS011;4969;52.304;4.968;2023-01-28T08:34:06;5.30;;;4.90;;
9860;SDS011;4969;52.304;4.968;2023-01-28T08:36:33;5.23;;;4.83;;
9860;SDS011;4969;52.304;4.968;2023-01-28T08:39:00;5.27;;;4.87;;
9860;SDS011;4969;52.304;4.968;2023-01-28T08:41:27;5.50;;;5.00;;
9860;SDS011;4969;52.304;4.968;2023-01-28T08:43:55;5.47;;;4.97;;
9860;SDS011;4969;52.304;4.968;2023-01-28T08:46:21;4.93;;;4.63;;
9860;SDS011;4969;52.304;4.968;2023-01-28T08:48:48;5.20;;;4.70;;
9860;SDS011;4969;52.304;4.968;2023-01-28T08:51:15;4.77;;;4.47;;
9860;SDS011;4969;52.304;4.968;2023-01-28T08:53:42;5.37;;;4.83;;
9860;SDS011;4969;52.304;4.968;2023-01-28T08:56:10;4.80;;;4.50;;
9860;SDS011;4969;52.304;4.968;2023-01-28T08:58:36;5.20;;;4.80;;
9860;SDS011;4969;52.304;4.968;2023-01-28T09:01:03;5.33;;;4.93;;
9860;SDS011;4969;52.304;4.968;2023-01-28T09:03:30;5.40;;;5.00;;
9860;SDS011;4969;52.304;4.968;2023-01-28T09:05:58;4.60;;;4.30;;
9860;SDS011;4969;52.304;4.968;2023-01-28T09:08:26;4.60;;;4.30;;
9860;SDS011;4969;52.304;4.968;2023-01-28T09:10:53;5.47;;;5.07;;
9860;SDS011;4969;52.304;4.968;2023-01-28T09:13:22;5.57;;;5.20;;
9860;SDS011;4969;52.304;4.968;2023-01-28T09:15:49;5.00;;;4.70;;
9860;SDS011;4969;52.304;4.968;2023-01-28T09:18:16;5.23;;;4.80;;
9860;SDS011;4969;52.304;4.968;2023-01-28T09:20:43;4.80;;;4.50;;
9860;SDS011;4969;52.304;4.968;2023-01-28T09:23:10;4.53;;;4.20;;
9860;SDS011;4969;52.304;4.968;2023-01-28T09:25:37;3.60;;;3.40;;
9860;SDS011;4969;52.304;4.968;2023-01-28T09:28:04;3.90;;;3.60;;
9860;SDS011;4969;52.304;4.968;2023-01-28T09:30:32;4.07;;;3.63;;
9860;SDS011;4969;52.304;4.968;2023-01-28T09:33:00;3.90;;;3.63;;
9860;SDS011;4969;52.304;4.968;2023-01-28T09:35:26;5.47;;;4.47;;
9860;SDS011;4969;52.304;4.968;2023-01-28T09:37:55;4.17;;;3.87;;
9860;SDS011;4969;52.304;4.968;2023-01-28T09:40:25;4.30;;;3.90;;
9860;SDS011;4969;52.304;4.968;2023-01-28T09:43:00;3.67;;;3.37;;
9860;SDS011;4969;52.304;4.968;2023-01-28T09:45:51;3.70;;;3.40;;
9860;SDS011;4969;52.304;4.968;2023-01-28T09:48:21;6.50;;;5.90;;
9860;SDS011;4969;52.304;4.968;2023-01-28T09:50:54;5.63;;;4.80;;
9860;SDS011;4969;52.304;4.968;2023-01-28T09:53:22;3.97;;;3.53;;
9860;SDS011;4969;52.304;4.968;2023-01-28T09:55:54;7.67;;;6.97;;
9860;SDS011;4969;52.304;4.968;2023-01-28T09:58:22;4.90;;;3.50;;
9860;SDS011;4969;52.304;4.968;2023-01-28T10:00:51;3.97;;;3.67;;
9860;SDS011;4969;52.304;4.968;2023-01-28T10:03:27;4.60;;;4.30;;
9860;SDS011;4969;52.304;4.968;2023-01-28T10:06:03;4.37;;;4.00;;
9860;SDS011;4969;52.304;4.968;2023-01-28T10:08:51;6.33;;;5.60;;
9860;SDS011;4969;52.304;4.968;2023-01-28T10:11:37;3.50;;;3.20;;
9860;SDS011;4969;52.304;4.968;2023-01-28T10:14:16;4.67;;;4.27;;
9860;SDS011;4969;52.304;4.968;2023-01-28T10:16:49;3.90;;;3.60;;
9860;SDS011;4969;52.304;4.968;2023-01-28T10:19:20;4.50;;;4.20;;
9860;SDS011;4969;52.304;4.968;2023-01-28T10:21:53;4.40;;;4.10;;
9860;SDS011;4969;52.304;4.968;2023-01-28T10:24:26;4.87;;;4.10;;
9860;SDS011;4969;52.304;4.968;2023-01-28T10:26:56;4.70;;;4.13;;
9860;SDS011;4969;52.304;4.968;2023-01-28T10:29:24;4.80;;;4.40;;
9860;SDS011;4969;52.304;4.968;2023-01-28T10:31:57;4.30;;;4.00;;
9860;SDS011;4969;52.304;4.968;2023-01-28T10:34:27;5.40;;;4.90;;
9860;SDS011;4969;52.304;4.968;2023-01-28T10:36:54;4.40;;;4.00;;
9860;SDS011;4969;52.304;4.968;2023-01-28T10:39:22;5.93;;;5.33;;
9860;SDS011;4969;52.304;4.968;2023-01-28T10:41:51;4.37;;;3.93;;
9860;SDS011;4969;52.304;4.968;2023-01-28T10:44:18;5.83;;;4.27;;
9860;SDS011;4969;52.304;4.968;2023-01-28T10:46:51;4.60;;;4.03;;
9860;SDS011;4969;52.304;4.968;2023-01-28T10:49:21;4.43;;;4.03;;
9860;SDS011;4969;52.304;4.968;2023-01-28T10:51:51;5.90;;;4.43;;
9860;SDS011;4969;52.304;4.968;2023-01-28T10:54:19;5.80;;;4.00;;
9860;SDS011;4969;52.304;4.968;2023-01-28T10:56:47;4.77;;;4.37;;
9860;SDS011;4969;52.304;4.968;2023-01-28T10:59:18;5.33;;;4.37;;
9860;SDS011;4969;52.304;4.968;2023-01-28T11:01:48;4.17;;;3.77;;
9860;SDS011;4969;52.304;4.968;2023-01-28T11:04:18;4.40;;;4.10;;
9860;SDS011;4969;52.304;4.968;2023-01-28T11:06:56;4.57;;;3.80;;
9860;SDS011;4969;52.304;4.968;2023-01-28T11:09:25;4.47;;;4.07;;
9860;SDS011;4969;52.304;4.968;2023-01-28T11:11:54;5.83;;;5.33;;
9860;SDS011;4969;52.304;4.968;2023-01-28T11:14:22;4.20;;;3.90;;
9860;SDS011;4969;52.304;4.968;2023-01-28T11:16:51;4.10;;;3.70;;
9860;SDS011;4969;52.304;4.968;2023-01-28T11:19:21;4.40;;;3.77;;
9860;SDS011;4969;52.304;4.968;2023-01-28T11:21:54;4.47;;;3.97;;
9860;SDS011;4969;52.304;4.968;2023-01-28T11:24:24;5.20;;;4.80;;
9860;SDS011;4969;52.304;4.968;2023-01-28T11:26:54;4.53;;;4.23;;
9860;SDS011;4969;52.304;4.968;2023-01-28T11:29:24;8.80;;;7.90;;
9860;SDS011;4969;52.304;4.968;2023-01-28T11:31:53;9.23;;;8.23;;
9860;SDS011;4969;52.304;4.968;2023-01-28T11:34:24;5.77;;;5.17;;
9860;SDS011;4969;52.304;4.968;2023-01-28T11:36:53;13.57;;;10.27;;
9860;SDS011;4969;52.304;4.968;2023-01-28T11:39:26;5.00;;;4.20;;
9860;SDS011;4969;52.304;4.968;2023-01-28T11:41:53;6.83;;;6.20;;
9860;SDS011;4969;52.304;4.968;2023-01-28T11:44:28;7.17;;;6.47;;
9860;SDS011;4969;52.304;4.968;2023-01-28T11:47:05;4.90;;;4.40;;
9860;SDS011;4969;52.304;4.968;2023-01-28T11:49:53;15.83;;;12.93;;
9860;SDS011;4969;52.304;4.968;2023-01-28T11:52:33;5.10;;;4.60;;
9860;SDS011;4969;52.304;4.968;2023-01-28T11:55:17;5.17;;;4.67;;
9860;SDS011;4969;52.304;4.968;2023-01-28T11:57:54;6.03;;;5.30;;
9860;SDS011;4969;52.304;4.968;2023-01-28T12:00:34;5.37;;;4.90;;
9860;SDS011;4969;52.304;4.968;2023-01-28T12:03:13;7.47;;;6.30;;
9860;SDS011;4969;52.304;4.968;2023-01-28T12:06:13;8.70;;;7.80;;
9860;SDS011;4969;52.304;4.968;2023-01-28T12:08:52;7.23;;;4.90;;
9860;SDS011;4969;52.304;4.968;2023-01-28T12:11:27;7.63;;;6.47;;
9860;SDS011;4969;52.304;4.968;2023-01-28T12:14:18;12.23;;;9.03;;
9860;SDS011;4969;52.304;4.968;2023-01-28T12:16:55;10.87;;;8.90;;
9860;SDS011;4969;52.304;4.968;2023-01-28T12:19:38;4.10;;;3.70;;
9860;SDS011;4969;52.304;4.968;2023-01-28T12:25:13;7.40;;;6.60;;
9860;SDS011;4969;52.304;4.968;2023-01-28T12:27:50;8.90;;;7.93;;
9860;SDS011;4969;52.304;4.968;2023-01-28T12:30:22;5.07;;;4.67;;
9860;SDS011;4969;52.304;4.968;2023-01-28T12:32:58;4.20;;;3.90;;
9860;SDS011;4969;52.304;4.968;2023-01-28T12:35:45;6.13;;;5.03;;
9860;SDS011;4969;52.304;4.968;2023-01-28T12:38:30;7.83;;;7.03;;
9860;SDS011;4969;52.304;4.968;2023-01-28T12:41:06;6.33;;;5.50;;
9860;SDS011;4969;52.304;4.968;2023-01-28T12:43:40;4.83;;;4.30;;
9860;SDS011;4969;52.304;4.968;2023-01-28T12:46:22;5.53;;;5.07;;
9860;SDS011;4969;52.304;4.968;2023-01-28T12:48:56;7.37;;;6.10;;
9860;SDS011;4969;52.304;4.968;2023-01-28T12:51:27;4.87;;;4.47;;
9860;SDS011;4969;52.304;4.968;2023-01-28T12:54:01;5.73;;;5.23;;
9860;SDS011;4969;52.304;4.968;2023-01-28T12:56:32;6.73;;;6.13;;
9860;SDS011;4969;52.304;4.968;2023-01-28T12:59:03;5.47;;;5.07;;
9860;SDS011;4969;52.304;4.968;2023-01-28T13:01:36;7.53;;;6.57;;
9860;SDS011;4969;52.304;4.968;2023-01-28T13:04:08;5.43;;;4.93;;
9860;SDS011;4969;52.304;4.968;2023-01-28T13:06:40;7.10;;;6.40;;
9860;SDS011;4969;52.304;4.968;2023-01-28T13:09:14;5.20;;;4.80;;
9860;SDS011;4969;52.304;4.968;2023-01-28T13:11:43;6.00;;;5.23;;
9860;SDS011;4969;52.304;4.968;2023-01-28T13:14:12;5.60;;;5.20;;
9860;SDS011;4969;52.304;4.968;2023-01-28T13:16:39;5.47;;;4.93;;
9860;SDS011;4969;52.304;4.968;2023-01-28T13:19:07;5.17;;;4.77;;
9860;SDS011;4969;52.304;4.968;2023-01-28T13:21:46;7.20;;;6.13;;
9860;SDS011;4969;52.304;4.968;2023-01-28T13:24:23;6.63;;;5.27;;
9860;SDS011;4969;52.304;4.968;2023-01-28T13:26:57;4.83;;;4.53;;
9860;SDS011;4969;52.304;4.968;2023-01-28T13:29:28;5.20;;;4.80;;
9860;SDS011;4969;52.304;4.968;2023-01-28T13:31:57;6.70;;;5.47;;
9860;SDS011;4969;52.304;4.968;2023-01-28T13:34:26;7.10;;;5.70;;
9860;SDS011;4969;52.304;4.968;2023-01-28T13:36:59;5.93;;;5.27;;
9860;SDS011;4969;52.304;4.968;2023-01-28T13:39:30;5.60;;;5.17;;
9860;SDS011;4969;52.304;4.968;2023-01-28T13:42:07;5.30;;;4.80;;
9860;SDS011;4969;52.304;4.968;2023-01-28T13:44:36;5.30;;;4.77;;
9860;SDS011;4969;52.304;4.968;2023-01-28T13:47:12;5.33;;;4.93;;
9860;SDS011;4969;52.304;4.968;2023-01-28T13:49:46;5.70;;;5.20;;
9860;SDS011;4969;52.304;4.968;2023-01-28T13:52:15;7.70;;;6.40;;
9860;SDS011;4969;52.304;4.968;2023-01-28T13:54:55;5.73;;;5.23;;
9860;SDS011;4969;52.304;4.968;2023-01-28T13:57:34;5.50;;;4.93;;
9860;SDS011;4969;52.304;4.968;2023-01-28T14:00:20;5.93;;;5.43;;
9860;SDS011;4969;52.304;4.968;2023-01-28T14:02:56;5.43;;;5.03;;
9860;SDS011;4969;52.304;4.968;2023-01-28T14:05:52;7.70;;;5.43;;
9860;SDS011;4969;52.304;4.968;2023-01-28T14:08:53;5.57;;;5.07;;
9860;SDS011;4969;52.304;4.968;2023-01-28T14:15:13;5.77;;;5.23;;
9860;SDS011;4969;52.304;4.968;2023-01-28T14:17:50;5.50;;;5.10;;
9860;SDS011;4969;52.304;4.968;2023-01-28T14:20:19;5.30;;;4.90;;
9860;SDS011;4969;52.304;4.968;2023-01-28T14:22:47;6.40;;;5.50;;
9860;SDS011;4969;52.304;4.968;2023-01-28T14:25:15;5.97;;;5.37;;
9860;SDS011;4969;52.304;4.968;2023-01-28T14:27:50;6.07;;;4.83;;
9860;SDS011;4969;52.304;4.968;2023-01-28T14:30:20;5.83;;;5.10;;
9860;SDS011;4969;52.304;4.968;2023-01-28T14:32:52;5.10;;;4.70;;
9860;SDS011;4969;52.304;4.968;2023-01-28T14:35:23;5.63;;;5.17;;
9860;SDS011;4969;52.304;4.968;2023-01-28T14:37:53;5.67;;;5.00;;
9860;SDS011;4969;52.304;4.968;2023-01-28T14:40:21;5.33;;;4.83;;
9860;SDS011;4969;52.304;4.968;2023-01-28T14:42:48;5.27;;;4.87;;
9860;SDS011;4969;52.304;4.968;2023-01-28T14:45:28;5.50;;;5.00;;
9860;SDS011;4969;52.304;4.968;2023-01-28T14:53:51;4.63;;;4.23;;
9860;SDS011;4969;52.304;4.968;2023-01-28T14:56:41;5.97;;;5.43;;
9860;SDS011;4969;52.304;4.968;2023-01-28T14:59:28;9.30;;;7.47;;
9860;SDS011;4969;52.304;4.968;2023-01-28T15:02:09;8.23;;;7.13;;
9860;SDS011;4969;52.304;4.968;2023-01-28T15:04:42;7.10;;;6.20;;
9860;SDS011;4969;52.304;4.968;2023-01-28T15:07:14;7.37;;;5.77;;
9860;SDS011;4969;52.304;4.968;2023-01-28T15:09:42;6.27;;;5.70;;
9860;SDS011;4969;52.304;4.968;2023-01-28T15:12:09;6.60;;;5.90;;
9860;SDS011;4969;52.304;4.968;2023-01-28T15:14:38;7.50;;;6.37;;
9860;SDS011;4969;52.304;4.968;2023-01-28T15:17:05;7.83;;;6.40;;
9860;SDS011;4969;52.304;4.968;2023-01-28T15:19:44;7.73;;;5.80;;
9860;SDS011;4969;52.304;4.968;2023-01-28T15:22:11;6.30;;;5.43;;
9860;SDS011;4969;52.304;4.968;2023-01-28T15:24:40;8.10;;;6.20;;
9860;SDS011;4969;52.304;4.968;2023-01-28T15:27:12;5.80;;;5.20;;
9860;SDS011;4969;52.304;4.968;2023-01-28T15:29:49;5.37;;;4.67;;
9860;SDS011;4969;52.304;4.968;2023-01-28T15:32:21;5.63;;;4.50;;
9860;SDS011;4969;52.304;4.968;2023-01-28T15:34:49;5.80;;;4.73;;
9860;SDS011;4969;52.304;4.968;2023-01-28T15:37:16;5.13;;;4.03;;
9860;SDS011;4969;52.304;4.968;2023-01-28T15:39:44;4.63;;;4.17;;
9860;SDS011;4969;52.304;4.968;2023-01-28T15:42:13;10.77;;;7.57;;
9860;SDS011;4969;52.304;4.968;2023-01-28T15:44:46;11.07;;;8.50;;
9860;SDS011;4969;52.304;4.968;2023-01-28T15:47:15;14.30;;;12.20;;
9860;SDS011;4969;52.304;4.968;2023-01-28T15:49:43;5.50;;;4.47;;
9860;SDS011;4969;52.304;4.968;2023-01-28T15:52:12;5.73;;;4.73;;